createdAt,value
2018-05-26T00:01:16.988Z,70.25
2018-05-26T00:03:50.666Z,69.97
2018-05-26T00:06:24.231Z,70.16
2018-05-26T00:08:57.991Z,70.17
2018-05-26T00:11:31.500Z,70.26
2018-05-26T00:14:05.084Z,70.53
2018-05-26T00:16:38.835Z,70.41
2018-05-26T00:19:12.391Z,70.32
2018-05-26T00:21:46.138Z,70.37
2018-05-26T00:24:19.923Z,70.17
2018-05-26T00:26:53.680Z,69.98
2018-05-26T00:29:27.275Z,69.81
2018-05-26T00:32:00.960Z,69.91
2018-05-26T00:34:34.544Z,69.92
2018-05-26T00:37:08.110Z,69.79
2018-05-26T00:39:41.804Z,69.93
2018-05-26T00:42:15.481Z,70.19
2018-05-26T00:44:49.113Z,70.01
2018-05-26T00:47:22.812Z,69.63
2018-05-26T00:49:56.464Z,69.94
2018-05-26T00:52:30.206Z,69.92
2018-05-26T00:55:03.932Z,69.93
2018-05-26T00:57:37.704Z,69.73
2018-05-26T01:00:11.502Z,69.56
2018-05-26T01:02:45.241Z,69.72
2018-05-26T01:08:01.197Z,70.18
2018-05-26T01:10:34.813Z,70.19
2018-05-26T01:13:08.418Z,70.19
2018-05-26T01:15:42.151Z,69.83
2018-05-26T01:18:15.688Z,69.89
2018-05-26T01:20:49.579Z,70.30
2018-05-26T01:23:23.311Z,70.66
2018-05-26T01:25:56.773Z,71.13
2018-05-26T01:28:30.353Z,71.07
2018-05-26T01:31:03.873Z,71.83
2018-05-26T01:33:37.429Z,72.05
2018-05-26T01:36:11.155Z,71.82
2018-05-26T01:38:44.684Z,71.76
2018-05-26T01:41:18.512Z,71.61
2018-05-26T01:43:52.168Z,71.87
2018-05-26T01:46:25.796Z,72.10
2018-05-26T01:48:59.332Z,71.77
2018-05-26T01:51:32.924Z,71.74
2018-05-26T01:54:06.920Z,71.75
2018-05-26T01:56:40.408Z,71.73
2018-05-26T01:59:14.191Z,71.86
2018-05-26T02:01:47.871Z,72.24
2018-05-26T02:04:21.524Z,72.13
2018-05-26T02:06:55.127Z,72.39
2018-05-26T02:09:28.907Z,72.66
2018-05-26T02:12:02.468Z,72.69
2018-05-26T02:14:36.016Z,73.29
2018-05-26T02:17:09.543Z,73.36
2018-05-26T02:19:43.051Z,73.22
2018-05-26T02:22:16.656Z,73.23
2018-05-26T02:24:50.290Z,73.18
2018-05-26T02:27:23.809Z,73.04
2018-05-26T02:29:57.448Z,73.09
2018-05-26T02:32:30.952Z,73.52
2018-05-26T02:35:04.604Z,73.82
2018-05-26T02:37:38.175Z,73.77
2018-05-26T02:40:11.764Z,73.68
2018-05-26T02:42:45.343Z,74.02
2018-05-26T02:45:18.896Z,73.92
2018-05-26T02:47:52.971Z,73.87
2018-05-26T02:50:26.556Z,73.80
2018-05-26T02:53:00.355Z,73.68
2018-05-26T02:55:33.940Z,73.84
2018-05-26T02:58:07.590Z,73.71
2018-05-26T03:00:41.075Z,73.52
2018-05-26T03:03:14.615Z,73.15
2018-05-26T03:05:53.713Z,73.39
2018-05-26T03:08:33.130Z,73.24
2018-05-26T03:11:12.399Z,73.46
2018-05-26T03:13:51.762Z,73.48
2018-05-26T03:16:30.945Z,73.62
2018-05-26T03:19:04.756Z,73.38
2018-05-26T03:21:38.532Z,73.22
2018-05-26T03:24:12.124Z,73.49
2018-05-26T03:26:45.674Z,73.78
2018-05-26T03:29:19.227Z,73.83
2018-05-26T03:31:53.022Z,73.60
2018-05-26T03:34:26.647Z,73.82
2018-05-26T03:37:00.179Z,73.94
2018-05-26T03:39:33.983Z,73.90
2018-05-26T03:42:07.764Z,73.77
2018-05-26T03:44:41.371Z,73.85
2018-05-26T03:47:14.995Z,74.08
2018-05-26T03:49:48.623Z,74.29
2018-05-26T03:52:22.404Z,74.04
2018-05-26T03:58:19.645Z,74.37
2018-05-26T04:00:53.418Z,74.10
2018-05-26T04:03:27.112Z,74.01
2018-05-26T04:06:00.865Z,73.65
2018-05-26T04:08:34.720Z,74.01
2018-05-26T04:11:08.228Z,74.23
2018-05-26T04:13:41.901Z,74.06
2018-05-26T04:16:15.759Z,73.54
2018-05-26T04:18:49.275Z,73.27
2018-05-26T04:21:23.063Z,73.07
2018-05-26T04:23:56.761Z,73.14
2018-05-26T04:26:30.569Z,73.17
2018-05-26T04:29:04.227Z,72.65
2018-05-26T04:31:38.716Z,72.36
2018-05-26T04:34:12.552Z,72.36
2018-05-26T04:36:46.277Z,71.86
2018-05-26T04:39:20.064Z,71.13
2018-05-26T04:41:53.800Z,71.05
2018-05-26T04:44:27.392Z,70.99
2018-05-26T04:47:01.399Z,71.05
2018-05-26T04:49:34.923Z,70.66
2018-05-26T04:52:08.531Z,70.60
2018-05-26T04:54:42.195Z,69.97
2018-05-26T04:57:15.871Z,69.48
2018-05-26T04:59:49.924Z,68.94
2018-05-26T05:02:23.438Z,68.23
2018-05-26T05:04:57.100Z,68.11
2018-05-26T05:07:30.924Z,67.78
2018-05-26T05:10:04.431Z,67.87
2018-05-26T05:12:38.096Z,67.73
2018-05-26T05:15:11.711Z,67.16
2018-05-26T05:17:45.263Z,67.45
2018-05-26T05:20:18.887Z,66.80
2018-05-26T05:22:52.463Z,66.26
2018-05-26T05:25:26.099Z,66.18
2018-05-26T05:27:59.876Z,65.20
2018-05-26T05:30:33.504Z,64.94
2018-05-26T05:33:07.043Z,65.15
2018-05-26T05:35:40.585Z,65.70
2018-05-26T05:38:14.257Z,63.87
2018-05-26T05:40:47.960Z,64.30
2018-05-26T05:43:21.769Z,63.33
2018-05-26T05:45:55.439Z,63.45
2018-05-26T05:48:29.040Z,63.18
2018-05-26T05:51:02.820Z,61.57
2018-05-26T05:53:36.428Z,62.06
2018-05-26T05:56:09.978Z,62.21
2018-05-26T05:58:43.635Z,61.49
2018-05-26T06:01:17.223Z,61.70
2018-05-26T06:03:50.767Z,60.55
2018-05-26T06:06:24.357Z,60.03
2018-05-26T06:08:58.003Z,59.78
2018-05-26T06:11:31.649Z,59.91
2018-05-26T06:14:05.275Z,58.82
2018-05-26T06:16:39.112Z,58.62
2018-05-26T06:19:12.902Z,58.15
2018-05-26T06:21:46.612Z,58.10
2018-05-26T06:24:20.165Z,57.54
2018-05-26T06:26:53.749Z,56.80
2018-05-26T06:29:27.492Z,54.08
2018-05-26T06:32:01.076Z,50.43
2018-05-26T06:34:34.849Z,46.72
2018-05-26T06:37:08.464Z,43.89
2018-05-26T06:39:42.164Z,41.36
2018-05-26T06:42:15.888Z,42.09
2018-05-26T06:44:49.672Z,39.99
2018-05-26T06:47:23.323Z,37.90
2018-05-26T06:49:57.075Z,37.85
2018-05-26T06:52:30.691Z,37.21
2018-05-26T06:55:04.304Z,37.90
2018-05-26T06:57:37.875Z,38.58
2018-05-26T07:00:11.733Z,37.73
2018-05-26T07:02:45.483Z,39.61
2018-05-26T07:05:19.184Z,37.89
2018-05-26T07:07:52.732Z,37.52
2018-05-26T07:10:26.328Z,37.91
2018-05-26T07:12:59.971Z,36.89
2018-05-26T07:15:33.672Z,37.39
2018-05-26T07:18:07.403Z,36.62
2018-05-26T07:20:40.923Z,37.05
2018-05-26T07:23:14.564Z,34.94
2018-05-26T07:25:48.177Z,35.23
2018-05-26T07:28:21.742Z,33.50
2018-05-26T07:30:55.524Z,33.54
2018-05-26T07:33:29.111Z,31.60
2018-05-26T07:36:02.667Z,30.95
2018-05-26T07:38:36.255Z,32.54
2018-05-26T07:41:09.868Z,33.63
2018-05-26T07:43:43.440Z,33.10
2018-05-26T07:46:17.284Z,32.14
2018-05-26T07:48:50.990Z,31.17
2018-05-26T07:51:24.797Z,33.80
2018-05-26T07:53:58.365Z,30.64
2018-05-26T07:56:32.069Z,32.61
2018-05-26T07:59:05.664Z,31.28
2018-05-26T08:01:39.318Z,30.91
2018-05-26T08:04:13.072Z,32.05
2018-05-26T08:06:46.805Z,31.63
2018-05-26T08:09:20.307Z,29.37
2018-05-26T08:11:53.994Z,31.48
2018-05-26T08:14:27.507Z,30.97
2018-05-26T08:17:01.094Z,30.64
2018-05-26T08:19:34.661Z,29.66
2018-05-26T08:22:08.416Z,30.12
2018-05-26T08:24:42.276Z,31.34
2018-05-26T08:27:15.974Z,28.29
2018-05-26T08:29:49.608Z,29.00
2018-05-26T08:32:23.300Z,29.55
2018-05-26T08:34:56.875Z,28.62
2018-05-26T08:37:30.416Z,29.62
2018-05-26T08:40:04.007Z,28.86
2018-05-26T08:42:37.677Z,27.31
2018-05-26T08:45:11.209Z,27.03
2018-05-26T08:47:44.968Z,27.48
2018-05-26T08:50:18.552Z,25.71
2018-05-26T08:52:52.220Z,26.96
2018-05-26T08:55:25.833Z,27.63
2018-05-26T08:57:59.596Z,27.18
2018-05-26T09:00:33.083Z,27.39
2018-05-26T09:03:06.888Z,26.35
2018-05-26T09:05:40.555Z,25.69
2018-05-26T09:08:14.119Z,26.60
2018-05-26T09:10:47.731Z,27.65
2018-05-26T09:13:21.492Z,26.54
2018-05-26T09:15:55.060Z,28.52
2018-05-26T09:18:28.856Z,27.48
2018-05-26T09:21:02.564Z,25.76
2018-05-26T09:23:36.345Z,26.66
2018-05-26T09:26:10.008Z,24.35
2018-05-26T09:28:43.763Z,25.53
2018-05-26T09:31:17.352Z,25.22
2018-05-26T09:33:50.867Z,23.24
2018-05-26T09:36:24.488Z,21.84
2018-05-26T09:38:58.096Z,21.61
2018-05-26T09:41:31.717Z,22.16
2018-05-26T09:44:05.292Z,22.66
2018-05-26T09:46:39.032Z,22.57
2018-05-26T09:49:12.668Z,25.54
2018-05-26T09:51:46.233Z,25.49
2018-05-26T09:54:19.947Z,21.47
2018-05-26T09:56:53.533Z,21.88
2018-05-26T09:59:27.191Z,22.01
2018-05-26T10:02:00.688Z,22.45
2018-05-26T10:04:34.317Z,23.44
2018-05-26T10:07:07.983Z,22.63
2018-05-26T10:09:41.761Z,22.70
2018-05-26T10:12:15.508Z,22.36
2018-05-26T10:14:49.318Z,22.04
2018-05-26T10:17:22.932Z,20.31
2018-05-26T10:19:56.559Z,20.65
2018-05-26T10:22:30.189Z,24.14
2018-05-26T10:25:03.907Z,23.87
2018-05-26T10:27:37.716Z,24.71
2018-05-26T10:30:11.244Z,21.57
2018-05-26T10:32:44.795Z,22.98
2018-05-26T10:35:18.568Z,19.89
2018-05-26T10:37:52.237Z,21.67
2018-05-26T10:40:25.988Z,21.68
2018-05-26T10:42:59.516Z,19.04
2018-05-26T10:45:39.057Z,21.08
2018-05-26T10:48:12.683Z,20.40
2018-05-26T10:50:46.241Z,18.70
2018-05-26T10:53:19.880Z,20.74
2018-05-26T10:55:53.437Z,18.91
2018-05-26T10:58:26.956Z,18.64
2018-05-26T11:01:00.523Z,18.54
2018-05-26T11:03:34.137Z,18.53
2018-05-26T11:06:08.011Z,18.35
2018-05-26T11:08:41.611Z,19.21
2018-05-26T11:11:15.196Z,18.92
2018-05-26T11:13:48.784Z,19.96
2018-05-26T11:16:22.730Z,19.24
2018-05-26T11:18:56.442Z,21.26
2018-05-26T11:21:30.073Z,18.32
2018-05-26T11:24:03.950Z,17.71
2018-05-26T11:26:37.499Z,23.04
2018-05-26T11:29:11.046Z,19.02
2018-05-26T11:31:44.880Z,19.71
2018-05-26T11:34:18.517Z,18.17
2018-05-26T11:36:52.168Z,18.06
2018-05-26T11:39:25.717Z,18.49
2018-05-26T11:41:59.418Z,19.62
2018-05-26T11:44:33.155Z,20.31
2018-05-26T11:47:06.717Z,22.73
2018-05-26T11:49:40.513Z,22.79
2018-05-26T11:52:14.303Z,22.76
2018-05-26T11:54:48.032Z,24.42
2018-05-26T11:57:21.601Z,24.56
2018-05-26T11:59:55.423Z,26.07
2018-05-26T12:02:29.400Z,26.24
2018-05-26T12:05:03.164Z,29.61
2018-05-26T12:07:36.712Z,29.98
2018-05-26T12:10:10.267Z,27.60
2018-05-26T12:12:43.824Z,28.20
2018-05-26T12:15:17.378Z,29.09
2018-05-26T12:17:50.946Z,29.44
2018-05-26T12:20:24.477Z,30.12
2018-05-26T12:22:58.219Z,29.91
2018-05-26T12:25:31.712Z,29.31
2018-05-26T12:28:05.356Z,30.36
2018-05-26T12:30:38.900Z,29.77
2018-05-26T12:33:12.654Z,29.75
2018-05-26T12:35:46.520Z,30.47
2018-05-26T12:38:20.197Z,30.43
2018-05-26T12:40:53.855Z,29.95
2018-05-26T12:43:27.493Z,31.70
2018-05-26T12:46:01.188Z,30.43
2018-05-26T12:48:36.595Z,31.31
2018-05-26T12:51:10.159Z,30.96
2018-05-26T12:53:43.675Z,30.55
2018-05-26T12:56:17.327Z,32.05
2018-05-26T12:58:51.100Z,30.66
2018-05-26T13:01:24.793Z,31.45
2018-05-26T13:03:58.327Z,31.58
2018-05-26T13:06:31.980Z,31.25
2018-05-26T13:09:05.647Z,30.12
2018-05-26T13:11:39.211Z,30.20
2018-05-26T13:14:12.845Z,30.79
2018-05-26T13:16:46.605Z,31.03
2018-05-26T13:19:20.448Z,30.71
2018-05-26T13:21:54.198Z,31.91
2018-05-26T13:24:27.977Z,31.37
2018-05-26T13:27:01.487Z,31.74
2018-05-26T13:29:34.998Z,32.91
2018-05-26T13:32:08.532Z,32.56
2018-05-26T13:34:42.372Z,32.88
2018-05-26T13:37:15.982Z,32.73
2018-05-26T13:39:49.631Z,33.57
2018-05-26T13:42:23.400Z,31.65
2018-05-26T13:44:57.122Z,31.75
2018-05-26T13:47:30.832Z,33.40
2018-05-26T13:50:04.545Z,32.31
2018-05-26T13:52:38.161Z,30.76
2018-05-26T13:55:11.910Z,31.42
2018-05-26T13:57:45.791Z,30.84
2018-05-26T14:00:19.483Z,30.76
2018-05-26T14:02:53.127Z,29.46
2018-05-26T14:05:26.691Z,29.26
2018-05-26T14:08:00.488Z,29.42
2018-05-26T14:10:34.079Z,31.00
2018-05-26T14:13:07.772Z,27.80
2018-05-26T14:15:41.279Z,28.66
2018-05-26T14:18:14.824Z,28.10
2018-05-26T14:20:48.331Z,28.29
2018-05-26T14:23:21.981Z,26.16
2018-05-26T14:25:55.676Z,25.54
2018-05-26T14:28:29.364Z,26.04
2018-05-26T14:31:02.920Z,26.95
2018-05-26T14:33:36.687Z,27.03
2018-05-26T14:36:10.235Z,28.18
2018-05-26T14:38:43.798Z,29.60
2018-05-26T14:41:17.457Z,29.22
2018-05-26T14:43:51.219Z,29.06
2018-05-26T14:46:24.761Z,31.80
2018-05-26T14:48:58.435Z,27.90
2018-05-26T14:51:32.132Z,27.10
2018-05-26T14:54:05.704Z,24.15
2018-05-26T14:56:39.329Z,23.85
2018-05-26T14:59:12.877Z,22.97
2018-05-26T15:01:46.645Z,22.96
2018-05-26T15:04:20.250Z,23.19
2018-05-26T15:06:53.755Z,24.85
2018-05-26T15:09:27.312Z,26.78
2018-05-26T15:12:00.907Z,31.69
2018-05-26T15:14:34.707Z,30.35
2018-05-26T15:17:08.348Z,27.38
2018-05-26T15:19:42.008Z,30.15
2018-05-26T15:22:15.651Z,31.31
2018-05-26T15:24:49.324Z,29.55
2018-05-26T15:27:22.944Z,30.86
2018-05-26T15:29:56.464Z,32.77
2018-05-26T15:32:30.188Z,31.16
2018-05-26T15:35:03.840Z,31.53
2018-05-26T15:37:37.452Z,31.51
2018-05-26T15:40:11.103Z,28.99
2018-05-26T15:42:44.926Z,28.91
2018-05-26T15:45:18.755Z,28.61
2018-05-26T15:47:52.607Z,28.75
2018-05-26T15:50:26.108Z,29.05
2018-05-26T15:52:59.655Z,29.78
2018-05-26T15:55:33.264Z,29.88
2018-05-26T15:58:06.977Z,31.55
2018-05-26T16:00:40.563Z,31.15
2018-05-26T16:03:14.250Z,30.90
2018-05-26T16:05:47.874Z,33.48
2018-05-26T16:08:21.520Z,28.93
2018-05-26T16:10:55.328Z,30.41
2018-05-26T16:13:28.915Z,30.12
2018-05-26T16:16:02.571Z,29.38
2018-05-26T16:18:36.236Z,29.20
2018-05-26T16:21:10.038Z,28.65
2018-05-26T16:23:43.771Z,28.88
2018-05-26T16:26:17.437Z,29.71
2018-05-26T16:28:51.125Z,30.13
2018-05-26T16:31:24.723Z,31.23
2018-05-26T16:33:58.449Z,28.95
2018-05-26T16:36:32.144Z,28.60
2018-05-26T16:39:05.814Z,29.20
2018-05-26T16:41:39.535Z,29.39
2018-05-26T16:44:13.112Z,29.99
2018-05-26T16:46:46.856Z,30.83
2018-05-26T16:49:20.489Z,30.43
2018-05-26T16:51:54.332Z,29.71
2018-05-26T16:54:27.921Z,29.92
2018-05-26T16:57:01.619Z,30.92
2018-05-26T16:59:35.296Z,30.51
2018-05-26T17:02:08.872Z,31.86
2018-05-26T17:04:42.384Z,33.75
2018-05-26T17:07:16.144Z,32.14
2018-05-26T17:09:49.676Z,35.46
2018-05-26T17:12:23.293Z,36.08
2018-05-26T17:14:56.776Z,31.99
2018-05-26T17:17:30.555Z,32.29
2018-05-26T17:20:04.092Z,32.65
2018-05-26T17:22:37.847Z,33.36
2018-05-26T17:25:11.385Z,33.64
2018-05-26T17:27:45.095Z,40.04
2018-05-26T17:30:18.605Z,32.99
2018-05-26T17:32:52.174Z,33.58
2018-05-26T17:35:25.980Z,34.20
2018-05-26T17:37:59.500Z,33.76
2018-05-26T17:40:33.239Z,36.41
2018-05-26T17:43:06.912Z,35.78
2018-05-26T17:45:40.592Z,39.17
2018-05-26T17:48:14.326Z,36.83
2018-05-26T17:50:48.008Z,35.82
2018-05-26T17:53:21.616Z,38.43
2018-05-26T17:55:55.483Z,41.69
2018-05-26T17:58:29.084Z,41.08
2018-05-26T18:01:02.735Z,40.11
2018-05-26T18:03:36.316Z,39.01
2018-05-26T18:06:10.008Z,41.04
2018-05-26T18:08:43.781Z,40.47
2018-05-26T18:11:17.564Z,43.56
2018-05-26T18:13:51.124Z,44.05
2018-05-26T18:16:24.792Z,44.92
2018-05-26T18:18:58.435Z,44.28
2018-05-26T18:21:32.048Z,43.99
2018-05-26T18:24:05.552Z,43.64
2018-05-26T18:26:39.212Z,42.54
2018-05-26T18:29:13.043Z,42.29
2018-05-26T18:31:46.584Z,42.72
2018-05-26T18:34:20.132Z,43.89
2018-05-26T18:36:53.940Z,44.71
2018-05-26T18:39:27.548Z,44.75
2018-05-26T18:42:01.332Z,44.68
2018-05-26T18:44:35.091Z,44.10
2018-05-26T18:47:08.617Z,44.17
2018-05-26T18:49:42.347Z,45.29
2018-05-26T18:52:16.364Z,45.60
2018-05-26T18:54:49.998Z,47.27
2018-05-26T18:57:23.524Z,46.87
2018-05-26T18:59:57.151Z,45.22
2018-05-26T19:02:30.696Z,44.99
2018-05-26T19:05:04.224Z,45.89
2018-05-26T19:07:37.787Z,45.75
2018-05-26T19:10:11.409Z,46.50
2018-05-26T19:12:44.921Z,46.96
2018-05-26T19:15:18.691Z,48.09
2018-05-26T19:17:52.351Z,46.67
2018-05-26T19:20:26.060Z,48.11
2018-05-26T19:22:59.620Z,48.25
2018-05-26T19:25:33.225Z,48.48
2018-05-26T19:28:06.883Z,47.95
2018-05-26T19:30:40.699Z,49.23
2018-05-26T19:33:14.332Z,47.41
2018-05-26T19:35:47.940Z,49.06
2018-05-26T19:38:21.519Z,48.62
2018-05-26T19:40:55.216Z,47.79
2018-05-26T19:43:28.903Z,48.83
2018-05-26T19:46:02.580Z,49.38
2018-05-26T19:48:36.344Z,48.97
2018-05-26T19:51:10.019Z,49.85
2018-05-26T19:53:43.579Z,48.45
2018-05-26T19:56:17.279Z,48.22
2018-05-26T19:58:51.092Z,49.91
2018-05-26T20:01:24.671Z,48.90
2018-05-26T20:03:58.275Z,49.11
2018-05-26T20:06:31.835Z,49.87
2018-05-26T20:09:05.672Z,51.09
2018-05-26T20:11:39.384Z,50.56
2018-05-26T20:14:13.108Z,49.27
2018-05-26T20:16:46.673Z,49.11
2018-05-26T20:22:00.359Z,48.96
2018-05-26T20:24:34.152Z,49.07
2018-05-26T20:27:07.762Z,49.81
2018-05-26T20:29:41.518Z,50.13
2018-05-26T20:32:15.063Z,50.23
2018-05-26T20:34:48.888Z,50.68
2018-05-26T20:37:22.400Z,51.29
2018-05-26T20:39:55.962Z,50.97
2018-05-26T20:42:29.759Z,50.80
2018-05-26T20:45:03.533Z,50.93
2018-05-26T20:47:37.139Z,52.10
2018-05-26T20:50:10.867Z,51.90
2018-05-26T20:52:44.493Z,51.66
2018-05-26T20:55:18.268Z,52.11
2018-05-26T20:57:51.999Z,53.00
2018-05-26T21:00:25.627Z,53.40
2018-05-26T21:02:59.183Z,53.57
2018-05-26T21:05:32.823Z,54.24
2018-05-26T21:08:06.400Z,54.16
2018-05-26T21:10:40.032Z,54.34
2018-05-26T21:13:13.547Z,54.73
2018-05-26T21:15:47.204Z,55.01
2018-05-26T21:18:20.832Z,55.00
2018-05-26T21:20:54.605Z,55.82
2018-05-26T21:23:28.216Z,54.83
2018-05-26T21:26:01.798Z,55.06
2018-05-26T21:28:35.311Z,54.48
2018-05-26T21:31:09.036Z,54.05
2018-05-26T21:33:42.575Z,54.21
2018-05-26T21:36:16.271Z,54.69
2018-05-26T21:38:49.960Z,55.45
2018-05-26T21:41:23.460Z,56.11
2018-05-26T21:43:57.252Z,55.95
2018-05-26T21:46:30.929Z,56.19
2018-05-26T21:49:04.531Z,56.11
2018-05-26T21:51:38.092Z,55.95
2018-05-26T21:54:11.699Z,55.82
2018-05-26T21:56:45.347Z,56.87
2018-05-26T21:59:19.088Z,57.17
2018-05-26T22:01:52.664Z,57.09
2018-05-26T22:04:26.457Z,56.16
2018-05-26T22:07:00.088Z,55.82
2018-05-26T22:09:33.666Z,55.24
2018-05-26T22:12:07.299Z,54.79
2018-05-26T22:14:40.883Z,54.70
2018-05-26T22:17:14.588Z,55.13
2018-05-26T22:19:48.324Z,54.89
2018-05-26T22:22:22.044Z,55.66
2018-05-26T22:24:55.780Z,55.86
2018-05-26T22:27:29.311Z,55.68
2018-05-26T22:30:02.928Z,55.61
2018-05-26T22:32:36.684Z,56.07
2018-05-26T22:35:10.235Z,56.10
2018-05-26T22:37:43.892Z,55.94
2018-05-26T22:40:17.504Z,56.25
2018-05-26T22:42:51.280Z,56.95
2018-05-26T22:45:24.875Z,57.68
2018-05-26T22:47:58.545Z,58.04
2018-05-26T22:50:32.136Z,58.55
2018-05-26T22:53:06.108Z,58.93
2018-05-26T22:55:39.767Z,58.98
2018-05-26T22:58:13.396Z,59.46
2018-05-26T23:00:47.136Z,60.03
2018-05-26T23:03:20.939Z,59.59
2018-05-26T23:05:54.738Z,59.77
2018-05-26T23:08:28.352Z,58.89
2018-05-26T23:11:02.015Z,58.98
2018-05-26T23:13:35.583Z,58.32
2018-05-26T23:16:09.328Z,58.46
2018-05-26T23:18:43.180Z,58.62
2018-05-26T23:21:16.748Z,58.59
2018-05-26T23:23:50.295Z,58.07
2018-05-26T23:26:23.832Z,57.80
2018-05-26T23:28:57.675Z,57.31
2018-05-26T23:31:31.144Z,56.28
2018-05-26T23:34:04.749Z,56.08
2018-05-26T23:36:38.286Z,55.52
2018-05-26T23:39:11.960Z,55.10
2018-05-26T23:41:45.596Z,55.03
2018-05-26T23:44:19.373Z,55.57
2018-05-26T23:46:53.072Z,56.35
2018-05-26T23:49:26.610Z,56.31
2018-05-26T23:52:00.143Z,56.60
2018-05-26T23:54:33.707Z,56.37
2018-05-26T23:57:07.332Z,55.77
2018-05-26T23:59:41.016Z,55.84
